Time;durP1;ratioP1;P1;durP2;ratioP2;P2;SDS_P1;SDS_P2;PMS_P1;PMS_P2;Temp;Humidity;BMP_temperature;BMP_pressure;BME280_temperature;BME280_humidity;BME280_pressure;Samples;Min_cycle;Max_cycle;Signal;HPM_P1;HPM_P2
2023/06/24 00:00:56;;;;;;;2.23;2.13;;;24.30;48.20;;;;;;5015599;28;20249;-74
2023/06/24 00:03:21;;;;;;;2.37;2.27;;;24.30;48.30;;;;;;5020882;28;20466;-73
2023/06/24 00:05:49;;;;;;;2.67;2.57;;;24.30;48.20;;;;;;5023184;28;20451;-74
2023/06/24 00:08:18;;;;;;;2.40;2.30;;;24.30;48.20;;;;;;5019263;28;20226;-74
2023/06/24 00:10:47;;;;;;;2.50;2.40;;;24.30;48.20;;;;;;5020260;28;20499;-74
2023/06/24 00:13:14;;;;;;;2.60;2.50;;;24.30;48.30;;;;;;5013947;28;20484;-74
2023/06/24 00:15:43;;;;;;;2.83;2.63;;;24.30;48.50;;;;;;5022968;28;20511;-74
2023/06/24 00:18:12;;;;;;;3.10;3.00;;;24.30;48.20;;;;;;5022112;28;20459;-74
2023/06/24 00:20:38;;;;;;;2.53;2.33;;;24.30;48.20;;;;;;5020452;28;20487;-74
2023/06/24 00:23:03;;;;;;;2.40;2.30;;;24.30;48.20;;;;;;5017948;28;20474;-74
2023/06/24 00:25:32;;;;;;;2.40;2.30;;;24.30;48.30;;;;;;5020168;28;20915;-74
2023/06/24 00:27:58;;;;;;;2.17;2.07;;;24.30;48.30;;;;;;5020916;28;20781;-74
2023/06/24 00:30:23;;;;;;;2.80;2.70;;;24.30;48.20;;;;;;5021243;28;20537;-74
2023/06/24 00:32:49;;;;;;;2.90;2.70;;;24.30;48.30;;;;;;5020084;28;20218;-74
2023/06/24 00:35:15;;;;;;;2.10;2.00;;;24.30;48.30;;;;;;5017863;28;20215;-74
2023/06/24 00:37:42;;;;;;;2.30;2.20;;;24.30;48.40;;;;;;5015367;28;20234;-74
2023/06/24 00:40:10;;;;;;;2.30;2.20;;;24.30;48.30;;;;;;5012811;28;20685;-74
2023/06/24 00:42:36;;;;;;;2.50;2.40;;;24.30;48.50;;;;;;5017626;28;20515;-73
2023/06/24 00:45:04;;;;;;;2.17;2.07;;;24.30;48.30;;;;;;5020662;28;20511;-74
2023/06/24 00:47:31;;;;;;;2.70;2.60;;;24.30;48.50;;;;;;5026789;28;20551;-74
2023/06/24 00:49:57;;;;;;;2.20;2.10;;;24.30;48.50;;;;;;5010049;28;21507;-75
2023/06/24 00:52:23;;;;;;;2.50;2.40;;;24.30;48.40;;;;;;5020045;28;20451;-74
2023/06/24 00:54:49;;;;;;;2.40;2.30;;;24.30;48.40;;;;;;5024333;28;20214;-74
2023/06/24 00:57:17;;;;;;;2.33;2.23;;;24.30;48.40;;;;;;5023021;28;21021;-74
2023/06/24 00:59:45;;;;;;;2.30;2.20;;;24.30;48.40;;;;;;5018540;28;20229;-74
2023/06/24 01:02:11;;;;;;;2.10;2.00;;;24.30;48.40;;;;;;5020532;28;20467;-74
2023/06/24 01:04:37;;;;;;;2.20;2.10;;;24.30;48.30;;;;;;5020147;28;20502;-73
2023/06/24 01:07:05;;;;;;;2.00;1.90;;;24.30;48.50;;;;;;5018182;28;20551;-74
2023/06/24 01:09:31;;;;;;;2.37;2.27;;;24.30;48.40;;;;;;5007166;28;20222;-74
2023/06/24 01:11:56;;;;;;;3.00;2.90;;;24.30;48.40;;;;;;5020234;28;21113;-74
2023/06/24 01:14:22;;;;;;;2.20;2.10;;;24.30;48.50;;;;;;5022872;28;20271;-74
2023/06/24 01:17:09;;;;;;;2.47;2.37;;;24.30;48.40;;;;;;5019638;28;20230;-74
2023/06/24 01:19:49;;;;;;;2.43;2.33;;;24.30;48.50;;;;;;5017607;28;20574;-74
2023/06/24 01:22:48;;;;;;;2.50;2.40;;;24.30;48.50;;;;;;5016646;28;21479;-74
2023/06/24 01:25:16;;;;;;;2.27;2.17;;;24.30;48.50;;;;;;5000755;28;20480;-74
2023/06/24 01:28:08;;;;;;;2.63;2.53;;;24.30;48.50;;;;;;5000824;28;20984;-74
2023/06/24 01:31:07;;;;;;;2.47;2.37;;;24.30;48.50;;;;;;4998946;28;20545;-74
2023/06/24 01:33:48;;;;;;;2.30;2.20;;;24.30;48.50;;;;;;4999310;28;20437;-74
2023/06/24 01:36:17;;;;;;;2.50;2.40;;;24.30;48.50;;;;;;5025450;28;20975;-74
2023/06/24 01:38:51;;;;;;;2.47;2.37;;;24.30;48.50;;;;;;5008727;28;21491;-74
2023/06/24 01:41:22;;;;;;;2.10;2.00;;;24.30;48.50;;;;;;5019580;28;20479;-74
2023/06/24 01:43:49;;;;;;;2.47;2.37;;;24.30;48.50;;;;;;5022712;28;20525;-74
2023/06/24 01:46:20;;;;;;;2.27;2.17;;;24.30;48.50;;;;;;5020507;28;20464;-74
2023/06/24 01:48:47;;;;;;;2.63;2.53;;;24.30;48.50;;;;;;5015498;28;21021;-74
2023/06/24 01:51:18;;;;;;;2.27;2.17;;;24.30;48.50;;;;;;5011185;28;20464;-74
2023/06/24 01:53:49;;;;;;;2.40;2.30;;;24.30;48.50;;;;;;5022362;28;20498;-74
2023/06/24 01:56:16;;;;;;;2.27;2.17;;;24.30;48.50;;;;;;5015710;28;21417;-74
2023/06/24 01:58:44;;;;;;;2.00;1.90;;;24.30;48.50;;;;;;5017876;28;20534;-74
2023/06/24 02:01:11;;;;;;;2.10;2.00;;;24.30;48.50;;;;;;5020706;28;21274;-74
2023/06/24 02:03:38;;;;;;;2.30;2.20;;;24.30;48.50;;;;;;5016801;28;20451;-73
2023/06/24 02:06:06;;;;;;;2.20;2.10;;;24.30;48.50;;;;;;5009495;28;20546;-74
2023/06/24 02:08:34;;;;;;;2.20;2.10;;;24.30;48.50;;;;;;5022220;28;20512;-74
2023/06/24 02:11:01;;;;;;;2.23;2.03;;;24.30;48.50;;;;;;5010816;28;20519;-74
2023/06/24 02:13:31;;;;;;;2.20;2.10;;;24.30;48.50;;;;;;5024459;28;20463;-74
2023/06/24 02:15:58;;;;;;;2.10;2.00;;;24.30;48.50;;;;;;5010439;28;20464;-74
2023/06/24 02:18:27;;;;;;;2.30;2.20;;;24.30;48.50;;;;;;5016617;28;21164;-74
2023/06/24 02:20:53;;;;;;;2.23;2.13;;;24.30;48.50;;;;;;5010345;28;20534;-75
2023/06/24 02:23:21;;;;;;;2.50;2.30;;;24.30;48.50;;;;;;5018532;28;20447;-74
2023/06/24 02:25:47;;;;;;;2.27;2.17;;;24.30;48.50;;;;;;5019267;28;20487;-74
2023/06/24 02:28:14;;;;;;;2.57;2.37;;;24.30;48.50;;;;;;5014354;28;20863;-75
2023/06/24 02:30:41;;;;;;;2.27;2.17;;;24.30;48.50;;;;;;5005021;28;21022;-74
2023/06/24 02:33:06;;;;;;;2.23;2.00;;;24.30;48.50;;;;;;5003843;28;20525;-74
2023/06/24 02:35:32;;;;;;;2.53;2.40;;;24.30;48.50;;;;;;5018637;28;20939;-75
2023/06/24 02:37:58;;;;;;;2.40;2.30;;;24.30;48.50;;;;;;5018626;28;20584;-74
2023/06/24 02:40:24;;;;;;;2.10;2.00;;;24.30;48.50;;;;;;5013288;28;20245;-74
2023/06/24 02:42:49;;;;;;;2.57;2.47;;;24.30;48.50;;;;;;5020234;28;20230;-74
2023/06/24 02:45:16;;;;;;;2.20;2.10;;;24.30;48.50;;;;;;5010195;28;20463;-74
2023/06/24 02:47:46;;;;;;;2.23;2.13;;;24.30;48.50;;;;;;5009105;28;20227;-74
2023/06/24 02:50:12;;;;;;;2.43;2.33;;;24.30;48.50;;;;;;5010283;28;20962;-74
2023/06/24 02:52:38;;;;;;;2.40;2.20;;;24.30;48.50;;;;;;5010962;28;20459;-74
2023/06/24 02:55:05;;;;;;;2.00;1.90;;;24.30;48.50;;;;;;5021373;28;20218;-74
2023/06/24 02:57:32;;;;;;;2.10;2.00;;;24.30;48.50;;;;;;5021380;28;20439;-74
2023/06/24 02:59:57;;;;;;;2.00;1.90;;;24.30;48.50;;;;;;5007517;28;20439;-74
2023/06/24 03:02:24;;;;;;;2.53;2.43;;;24.30;48.50;;;;;;5015763;28;20514;-74
2023/06/24 03:04:51;;;;;;;2.00;1.90;;;24.30;48.50;;;;;;5012776;28;20315;-74
2023/06/24 03:07:21;;;;;;;2.00;1.90;;;24.30;48.50;;;;;;5003991;28;20467;-74
2023/06/24 03:09:47;;;;;;;2.40;2.30;;;24.30;48.50;;;;;;5012792;28;20468;-74
2023/06/24 03:12:13;;;;;;;2.53;2.43;;;24.30;48.50;;;;;;5035910;28;20452;-74
2023/06/24 03:14:38;;;;;;;2.37;2.27;;;24.30;48.50;;;;;;5018612;28;20302;-74
2023/06/24 03:17:04;;;;;;;2.30;2.20;;;24.30;48.50;;;;;;5022498;28;20264;-74
2023/06/24 03:19:29;;;;;;;2.33;2.23;;;24.30;48.50;;;;;;5024902;28;20218;-74
2023/06/24 03:21:55;;;;;;;2.10;2.00;;;24.30;48.50;;;;;;5011356;28;20283;-74
2023/06/24 03:24:21;;;;;;;2.37;2.27;;;24.30;48.50;;;;;;5020962;28;20269;-74
2023/06/24 03:26:46;;;;;;;2.37;2.27;;;24.30;48.50;;;;;;5021032;28;20296;-74
2023/06/24 03:29:12;;;;;;;2.40;2.30;;;24.30;48.50;;;;;;5019226;28;20228;-74
2023/06/24 03:31:43;;;;;;;2.30;2.20;;;24.30;48.50;;;;;;5019450;28;20292;-73
2023/06/24 03:34:10;;;;;;;2.40;2.30;;;24.30;48.50;;;;;;5017950;28;20219;-74
2023/06/24 03:36:38;;;;;;;2.30;2.20;;;24.30;48.50;;;;;;5018473;28;20460;-74
2023/06/24 03:39:04;;;;;;;2.10;2.00;;;24.30;48.50;;;;;;5003862;28;20467;-74
2023/06/24 03:41:30;;;;;;;4.23;2.60;;;24.30;48.50;;;;;;5022427;28;20982;-74
2023/06/24 03:43:55;;;;;;;2.40;2.30;;;24.30;48.50;;;;;;5015184;28;20448;-74
2023/06/24 03:46:21;;;;;;;2.20;2.10;;;24.30;48.50;;;;;;4999648;28;20319;-74
2023/06/24 03:48:47;;;;;;;2.10;2.00;;;24.30;48.50;;;;;;5005058;28;20579;-74
2023/06/24 03:51:13;;;;;;;10.03;2.70;;;24.30;48.50;;;;;;5000787;28;20465;-74
2023/06/24 03:53:38;;;;;;;2.20;2.10;;;24.30;48.50;;;;;;5010256;28;20306;-74
2023/06/24 03:56:04;;;;;;;2.23;2.13;;;24.30;48.50;;;;;;5019619;28;20233;-74
2023/06/24 03:58:30;;;;;;;2.50;2.40;;;24.30;48.50;;;;;;5019534;28;20357;-74
2023/06/24 04:00:57;;;;;;;2.60;2.50;;;24.30;48.50;;;;;;5000750;28;20234;-74
2023/06/24 04:03:25;;;;;;;2.20;2.10;;;24.30;48.50;;;;;;5019161;28;20222;-74
2023/06/24 04:05:53;;;;;;;2.50;2.30;;;24.30;48.50;;;;;;5016931;28;21011;-74
2023/06/24 04:08:18;;;;;;;2.20;2.10;;;24.30;48.50;;;;;;4999165;28;20586;-74
2023/06/24 04:10:44;;;;;;;2.10;2.00;;;24.30;48.50;;;;;;5002080;28;20471;-74
2023/06/24 04:13:09;;;;;;;2.33;2.13;;;24.30;48.50;;;;;;5005253;28;20537;-74
2023/06/24 04:15:35;;;;;;;2.50;2.40;;;24.30;48.50;;;;;;5000196;28;20247;-74
2023/06/24 04:18:01;;;;;;;2.40;2.30;;;24.20;48.40;;;;;;4999812;28;20234;-74
2023/06/24 04:20:26;;;;;;;2.20;2.10;;;24.30;48.50;;;;;;5001290;28;20223;-74
2023/06/24 04:22:52;;;;;;;2.40;2.30;;;24.30;48.50;;;;;;5000955;28;20282;-74
2023/06/24 04:25:17;;;;;;;2.60;2.50;;;24.30;48.50;;;;;;5011638;28;20227;-74
2023/06/24 04:27:43;;;;;;;2.60;2.50;;;24.30;48.50;;;;;;5015494;28;20235;-74
2023/06/24 04:30:09;;;;;;;2.50;2.40;;;24.30;48.50;;;;;;5021117;28;20222;-74
2023/06/24 04:32:34;;;;;;;2.30;2.20;;;24.30;48.50;;;;;;5022410;28;20218;-74
2023/06/24 04:35:00;;;;;;;2.40;2.30;;;24.30;48.40;;;;;;5015405;28;20986;-75
2023/06/24 04:37:26;;;;;;;2.30;2.20;;;24.30;48.50;;;;;;5016276;28;22604;-74
2023/06/24 04:39:52;;;;;;;2.60;2.50;;;24.30;48.50;;;;;;5004437;28;20471;-75
2023/06/24 04:42:17;;;;;;;2.20;2.10;;;24.30;48.40;;;;;;5017602;28;20235;-75
2023/06/24 04:44:43;;;;;;;2.57;2.47;;;24.30;48.50;;;;;;5024583;28;20710;-74
2023/06/24 04:47:08;;;;;;;2.07;1.97;;;24.30;48.50;;;;;;5020151;28;20225;-74
2023/06/24 04:49:34;;;;;;;2.40;2.30;;;24.30;48.50;;;;;;5017069;28;20237;-74
2023/06/24 04:52:02;;;;;;;2.50;2.40;;;24.30;48.50;;;;;;5024235;28;20316;-74
2023/06/24 04:54:28;;;;;;;2.30;2.20;;;24.30;48.50;;;;;;5018533;28;20223;-75
2023/06/24 04:56:57;;;;;;;2.20;2.10;;;24.30;48.50;;;;;;5015098;28;20471;-75
2023/06/24 04:59:23;;;;;;;2.63;2.43;;;24.30;48.50;;;;;;5004691;28;20234;-74
2023/06/24 05:01:51;;;;;;;2.10;2.00;;;24.30;48.50;;;;;;5015803;28;20473;-75
2023/06/24 05:04:16;;;;;;;2.07;1.97;;;24.30;48.50;;;;;;5018467;28;20214;-75
2023/06/24 05:06:42;;;;;;;2.60;2.40;;;24.30;48.50;;;;;;5027003;28;20986;-74
2023/06/24 05:09:08;;;;;;;2.33;2.23;;;24.30;48.50;;;;;;4994022;28;20219;-74
2023/06/24 05:11:34;;;;;;;2.70;2.53;;;24.30;48.50;;;;;;5018831;28;20632;-75
2023/06/24 05:14:00;;;;;;;2.63;2.53;;;24.30;48.50;;;;;;5002986;28;20469;-75
2023/06/24 05:16:26;;;;;;;2.20;2.10;;;24.30;48.50;;;;;;4996187;28;20219;-75
2023/06/24 05:18:51;;;;;;;2.00;1.90;;;24.30;48.40;;;;;;5030067;28;21054;-75
2023/06/24 05:21:17;;;;;;;2.37;2.27;;;24.30;48.50;;;;;;5004438;28;20313;-75
2023/06/24 05:23:42;;;;;;;2.30;2.20;;;24.30;48.50;;;;;;5023678;28;20219;-75
2023/06/24 05:26:08;;;;;;;2.30;2.20;;;24.30;48.50;;;;;;5011252;28;20247;-75
2023/06/24 05:28:34;;;;;;;2.37;2.27;;;24.30;48.40;;;;;;5014584;28;20701;-75
2023/06/24 05:30:59;;;;;;;2.30;2.20;;;24.30;48.40;;;;;;5014723;28;20219;-75
2023/06/24 05:33:25;;;;;;;2.10;2.00;;;24.30;48.40;;;;;;5015746;28;20218;-75
2023/06/24 05:35:51;;;;;;;2.10;2.00;;;24.30;48.40;;;;;;5017919;28;20602;-75
2023/06/24 05:38:16;;;;;;;2.20;2.10;;;24.30;48.30;;;;;;5025384;28;20217;-75
2023/06/24 05:40:42;;;;;;;2.27;2.17;;;24.30;48.30;;;;;;5015098;28;20226;-75
2023/06/24 05:43:08;;;;;;;2.20;2.10;;;24.40;48.50;;;;;;5017340;28;20219;-74
2023/06/24 05:45:33;;;;;;;2.03;1.93;;;24.40;48.50;;;;;;5016062;28;20308;-75
2023/06/24 05:47:59;;;;;;;2.23;2.13;;;24.30;48.40;;;;;;5019801;28;20692;-75
2023/06/24 05:50:24;;;;;;;2.27;2.17;;;24.40;48.60;;;;;;5000963;28;20232;-74
2023/06/24 05:52:50;;;;;;;2.40;2.30;;;24.40;48.50;;;;;;5019435;28;20226;-73
2023/06/24 05:55:15;;;;;;;2.47;2.37;;;24.40;48.60;;;;;;5016783;28;20226;-73
2023/06/24 05:57:41;;;;;;;2.50;2.30;;;24.40;48.60;;;;;;5022014;28;20222;-73
2023/06/24 06:00:07;;;;;;;2.10;2.00;;;24.40;48.50;;;;;;5021869;28;20304;-73
2023/06/24 06:02:33;;;;;;;2.33;2.23;;;24.40;48.50;;;;;;5018782;28;20237;-75
2023/06/24 06:04:58;;;;;;;2.67;2.57;;;24.40;48.40;;;;;;5014804;28;20462;-75
2023/06/24 06:07:24;;;;;;;2.47;2.37;;;24.40;48.50;;;;;;5000790;28;20306;-75
2023/06/24 06:09:49;;;;;;;2.63;2.53;;;24.40;48.50;;;;;;5031052;28;20210;-75
2023/06/24 06:12:15;;;;;;;2.23;2.13;;;24.40;48.50;;;;;;5017460;28;20218;-74
2023/06/24 06:14:40;;;;;;;2.43;2.33;;;24.40;48.50;;;;;;5011221;28;20518;-75
2023/06/24 06:17:06;;;;;;;2.30;2.20;;;24.40;48.50;;;;;;5017426;28;20219;-75
2023/06/24 06:19:32;;;;;;;2.10;2.00;;;24.40;48.50;;;;;;5008786;28;20556;-75
2023/06/24 06:21:57;;;;;;;2.40;2.30;;;24.40;48.50;;;;;;5008129;28;20227;-74
2023/06/24 06:24:23;;;;;;;2.70;2.50;;;24.40;48.50;;;;;;5020079;28;20309;-75
2023/06/24 06:26:48;;;;;;;2.90;2.80;;;24.40;48.50;;;;;;5013003;28;20277;-75
2023/06/24 06:29:14;;;;;;;2.20;2.10;;;24.40;48.60;;;;;;4998703;28;20219;-75
2023/06/24 06:31:39;;;;;;;2.20;2.10;;;24.40;48.50;;;;;;4995490;28;20293;-75
2023/06/24 06:34:05;;;;;;;2.57;2.47;;;24.40;48.50;;;;;;5022030;28;20694;-75
2023/06/24 06:36:31;;;;;;;2.30;2.20;;;24.40;48.50;;;;;;4996966;28;20630;-75
2023/06/24 06:38:56;;;;;;;2.57;2.47;;;24.40;48.40;;;;;;5021073;28;20234;-75
2023/06/24 06:41:24;;;;;;;2.40;2.30;;;24.40;48.50;;;;;;5011875;28;20280;-75
2023/06/24 06:43:53;;;;;;;2.33;2.23;;;24.40;48.30;;;;;;4999855;28;20211;-75
2023/06/24 06:46:20;;;;;;;2.10;2.00;;;24.40;48.40;;;;;;5011167;28;20449;-75
2023/06/24 06:48:45;;;;;;;2.20;2.10;;;24.40;48.50;;;;;;5001899;28;20468;-75
2023/06/24 06:51:12;;;;;;;2.57;2.47;;;24.40;48.50;;;;;;5006521;28;20460;-76
2023/06/24 06:53:37;;;;;;;2.73;2.63;;;24.40;48.50;;;;;;5011928;28;20227;-75
2023/06/24 06:56:03;;;;;;;2.40;2.30;;;24.40;48.30;;;;;;5016771;28;20458;-76
2023/06/24 06:58:28;;;;;;;1.93;1.83;;;24.40;48.30;;;;;;5016897;28;20219;-75
2023/06/24 07:00:54;;;;;;;2.20;2.10;;;24.40;48.50;;;;;;5009324;28;20233;-76
2023/06/24 07:03:19;;;;;;;2.07;1.97;;;24.40;48.50;;;;;;5013083;28;20235;-76
2023/06/24 07:05:46;;;;;;;2.20;2.10;;;24.40;48.30;;;;;;5017957;28;20220;-76
2023/06/24 07:08:11;;;;;;;2.20;2.10;;;24.40;48.40;;;;;;5019391;28;20218;-76
2023/06/24 07:10:37;;;;;;;2.00;1.90;;;24.40;48.40;;;;;;5014319;28;20993;-75
2023/06/24 07:13:02;;;;;;;2.60;2.50;;;24.40;48.30;;;;;;5018296;28;21185;-76
2023/06/24 07:15:28;;;;;;;2.30;2.20;;;24.40;48.30;;;;;;5011833;28;20231;-76
2023/06/24 07:17:54;;;;;;;2.00;1.90;;;24.40;48.30;;;;;;5017271;28;20250;-76
2023/06/24 07:20:21;;;;;;;2.13;2.03;;;24.40;48.30;;;;;;5013551;28;20620;-76
2023/06/24 07:22:47;;;;;;;2.00;1.90;;;24.40;48.20;;;;;;5002429;28;20239;-74
2023/06/24 07:25:13;;;;;;;2.43;2.33;;;24.40;48.20;;;;;;5015439;28;20484;-75
2023/06/24 07:27:38;;;;;;;2.30;2.17;;;24.40;48.20;;;;;;5014310;28;20694;-74
2023/06/24 07:30:05;;;;;;;2.10;2.00;;;24.40;48.10;;;;;;5018206;28;20221;-75
2023/06/24 07:32:30;;;;;;;2.10;2.00;;;24.40;48.20;;;;;;5017496;28;20292;-75
2023/06/24 07:34:56;;;;;;;1.93;1.83;;;24.40;48.10;;;;;;5007061;28;21037;-74
2023/06/24 07:37:22;;;;;;;2.50;2.40;;;24.50;48.80;;;;;;5010383;28;20233;-75
2023/06/24 07:39:48;;;;;;;2.03;1.93;;;24.50;48.10;;;;;;5010148;28;20306;-75
2023/06/24 07:42:18;;;;;;;2.30;2.20;;;24.50;48.10;;;;;;5009666;28;20227;-75
2023/06/24 07:44:48;;;;;;;2.50;2.40;;;24.50;48.80;;;;;;5013983;28;20218;-76
2023/06/24 07:47:14;;;;;;;1.90;1.80;;;24.50;48.00;;;;;;5020821;28;20815;-76
2023/06/24 07:49:39;;;;;;;2.57;2.37;;;24.50;48.00;;;;;;5014179;28;20455;-75
2023/06/24 07:52:06;;;;;;;1.83;1.73;;;24.50;48.00;;;;;;5005423;28;20456;-76
2023/06/24 07:54:31;;;;;;;2.13;2.03;;;24.50;48.00;;;;;;5006571;28;20234;-75
2023/06/24 07:56:57;;;;;;;2.07;1.97;;;24.50;48.00;;;;;;5022874;28;20451;-75
2023/06/24 07:59:23;;;;;;;1.90;1.80;;;24.50;48.00;;;;;;5014069;28;21080;-76
2023/06/24 08:01:48;;;;;;;2.13;2.03;;;24.50;48.00;;;;;;5026820;28;20251;-76
2023/06/24 08:04:15;;;;;;;2.70;2.60;;;24.50;48.00;;;;;;5016430;28;20290;-76
2023/06/24 08:06:40;;;;;;;2.33;2.23;;;24.50;48.00;;;;;;5007165;28;20585;-76
2023/06/24 08:09:06;;;;;;;2.30;2.20;;;24.50;48.10;;;;;;5025189;28;20455;-77
2023/06/24 08:11:32;;;;;;;2.30;2.20;;;24.50;48.00;;;;;;5014423;28;20228;-77
2023/06/24 08:13:58;;;;;;;2.00;1.90;;;24.50;48.00;;;;;;5021320;28;20234;-77
2023/06/24 08:16:23;;;;;;;2.27;2.17;;;24.50;48.00;;;;;;5016512;28;20222;-77
2023/06/24 08:18:49;;;;;;;2.03;1.93;;;24.50;48.10;;;;;;5020612;28;20333;-77
2023/06/24 08:21:14;;;;;;;2.27;2.17;;;24.50;48.10;;;;;;5021838;28;20693;-76
2023/06/24 08:23:40;;;;;;;2.30;2.20;;;24.50;48.00;;;;;;5024860;28;20720;-76
2023/06/24 08:26:07;;;;;;;2.07;1.97;;;24.50;48.00;;;;;;5016405;28;20690;-77
2023/06/24 08:28:32;;;;;;;2.20;2.10;;;24.50;48.00;;;;;;5010247;28;21000;-77
2023/06/24 08:30:58;;;;;;;2.23;2.13;;;24.50;48.00;;;;;;5015472;28;20444;-75
2023/06/24 08:33:24;;;;;;;2.17;2.07;;;24.50;48.00;;;;;;5020835;28;20225;-74
2023/06/24 08:35:49;;;;;;;2.13;2.03;;;24.50;48.00;;;;;;5014977;28;20412;-75
2023/06/24 08:38:15;;;;;;;5.00;2.20;;;24.50;48.10;;;;;;5021444;28;20219;-75
2023/06/24 08:40:40;;;;;;;2.23;2.13;;;24.50;48.00;;;;;;5012600;28;20296;-75
2023/06/24 08:43:06;;;;;;;2.10;2.00;;;24.50;48.10;;;;;;5010912;28;21263;-76
2023/06/24 08:45:32;;;;;;;2.10;2.00;;;24.50;48.00;;;;;;5015673;28;20246;-76
2023/06/24 08:48:00;;;;;;;2.00;1.90;;;24.50;48.00;;;;;;5019948;28;20218;-76
2023/06/24 08:50:31;;;;;;;2.23;2.13;;;24.50;48.00;;;;;;5013311;28;20666;-76
2023/06/24 08:52:57;;;;;;;2.20;2.10;;;24.50;48.00;;;;;;5010425;28;20451;-76
2023/06/24 08:55:27;;;;;;;2.20;2.10;;;24.50;48.10;;;;;;5015766;28;20994;-76
2023/06/24 08:57:53;;;;;;;2.20;2.10;;;24.50;48.10;;;;;;5022717;28;20930;-76
2023/06/24 09:00:19;;;;;;;2.23;2.13;;;24.50;48.10;;;;;;5017125;28;20467;-76
2023/06/24 09:02:45;;;;;;;2.37;2.27;;;24.50;48.00;;;;;;5003113;28;20235;-76
2023/06/24 09:05:10;;;;;;;2.17;2.07;;;24.50;48.00;;;;;;5020720;28;20704;-76
2023/06/24 09:07:37;;;;;;;1.83;1.73;;;24.50;48.00;;;;;;5018927;28;20249;-76
2023/06/24 09:10:03;;;;;;;2.23;2.13;;;24.50;48.00;;;;;;5024924;28;20674;-77
2023/06/24 09:12:32;;;;;;;2.00;1.90;;;24.50;48.00;;;;;;5021102;28;20452;-77
2023/06/24 09:14:58;;;;;;;2.17;2.07;;;24.50;48.00;;;;;;5025717;28;20474;-77
2023/06/24 09:17:24;;;;;;;2.20;2.10;;;24.50;48.00;;;;;;5023184;28;20776;-77
2023/06/24 09:19:50;;;;;;;2.23;2.13;;;24.50;48.00;;;;;;5020306;28;20182;-76
2023/06/24 09:22:17;;;;;;;2.27;2.17;;;24.50;48.00;;;;;;5026707;28;20285;-77
2023/06/24 09:24:47;;;;;;;1.97;1.87;;;24.50;48.00;;;;;;5022735;28;20440;-77
2023/06/24 09:27:14;;;;;;;2.23;2.03;;;24.50;48.00;;;;;;5020354;28;20458;-77
2023/06/24 09:29:41;;;;;;;2.07;1.97;;;24.50;48.10;;;;;;5025855;28;20440;-77
2023/06/24 09:32:07;;;;;;;2.00;1.90;;;24.50;48.00;;;;;;5025732;28;20474;-77
2023/06/24 09:34:34;;;;;;;2.03;1.93;;;24.50;48.00;;;;;;5021506;28;20440;-77
2023/06/24 09:37:00;;;;;;;1.80;1.70;;;24.50;48.00;;;;;;5026811;28;20463;-77
2023/06/24 09:39:30;;;;;;;2.53;2.43;;;24.50;48.00;;;;;;5027453;28;20479;-77
2023/06/24 09:42:00;;;;;;;2.23;2.13;;;24.50;48.00;;;;;;5027396;28;20478;-77
2023/06/24 09:44:27;;;;;;;2.20;2.10;;;24.50;48.00;;;;;;5025143;28;20436;-77
2023/06/24 09:46:54;;;;;;;2.17;2.07;;;24.50;48.00;;;;;;5026283;28;21198;-77
2023/06/24 09:49:19;;;;;;;2.43;2.33;;;24.50;48.00;;;;;;5025647;28;20434;-77
2023/06/24 09:51:46;;;;;;;2.17;2.07;;;24.50;48.00;;;;;;5021474;28;20440;-77
2023/06/24 09:54:14;;;;;;;2.10;2.00;;;24.50;48.00;;;;;;5026269;28;20202;-77
2023/06/24 09:56:44;;;;;;;2.20;2.10;;;24.50;48.70;;;;;;5023429;28;21000;-76
2023/06/24 09:59:12;;;;;;;2.20;2.10;;;24.50;48.00;;;;;;5026712;28;20436;-77
2023/06/24 10:01:40;;;;;;;2.43;2.33;;;24.50;48.00;;;;;;5023691;28;21001;-77
2023/06/24 10:04:07;;;;;;;1.93;1.83;;;24.50;47.90;;;;;;5020881;28;20456;-77
2023/06/24 10:06:34;;;;;;;2.33;2.23;;;24.50;47.90;;;;;;5019429;28;20447;-77
2023/06/24 10:09:01;;;;;;;2.03;1.93;;;24.50;47.90;;;;;;5024145;28;20444;-77
2023/06/24 10:11:26;;;;;;;2.30;2.20;;;24.50;48.00;;;;;;5022883;28;20474;-77
2023/06/24 10:13:53;;;;;;;2.27;2.17;;;24.50;47.90;;;;;;5024835;28;20528;-77
2023/06/24 10:16:19;;;;;;;2.07;1.97;;;24.50;47.80;;;;;;5022628;28;20623;-77
2023/06/24 10:18:45;;;;;;;2.17;2.07;;;24.50;47.90;;;;;;5022000;28;20447;-77
2023/06/24 10:21:12;;;;;;;1.97;1.87;;;24.60;48.00;;;;;;5024170;28;20466;-77
2023/06/24 10:23:48;;;;;;;2.20;2.10;;;24.50;47.90;;;;;;5026843;28;20444;-77
2023/06/24 10:26:28;;;;;;;2.20;2.10;;;24.60;47.90;;;;;;5024093;28;20536;-77
2023/06/24 10:29:06;;;;;;;2.20;2.10;;;24.60;48.70;;;;;;5025939;28;21444;-77
2023/06/24 10:31:40;;;;;;;2.00;1.90;;;24.60;47.90;;;;;;5023731;28;20428;-77
2023/06/24 10:34:42;;;;;;;2.10;2.00;;;24.60;48.00;;;;;;5026544;28;20423;-77
2023/06/24 10:37:17;;;;;;;2.13;2.03;;;24.60;47.90;;;;;;5024383;28;20439;-77
2023/06/24 10:39:49;;;;;;;2.43;2.33;;;24.60;48.00;;;;;;5024719;28;20427;-77
2023/06/24 10:42:28;;;;;;;2.20;2.10;;;24.60;47.90;;;;;;5039646;28;20905;-77
2023/06/24 10:44:56;;;;;;;2.10;2.00;;;24.60;47.90;;;;;;5031467;28;20454;-77
2023/06/24 10:47:23;;;;;;;1.90;1.80;;;24.60;47.90;;;;;;5021442;28;20439;-77
2023/06/24 10:49:49;;;;;;;2.40;2.30;;;24.60;47.90;;;;;;5029938;28;20498;-77
2023/06/24 10:52:17;;;;;;;2.50;2.40;;;24.60;48.00;;;;;;5020167;28;20443;-77
2023/06/24 10:54:43;;;;;;;2.07;1.97;;;24.60;47.90;;;;;;5019952;28;20439;-77
2023/06/24 10:57:12;;;;;;;2.13;2.03;;;24.60;47.90;;;;;;5022050;28;20961;-77
2023/06/24 10:59:48;;;;;;;2.83;2.63;;;24.60;47.90;;;;;;5020959;28;20243;-76
2023/06/24 11:02:16;;;;;;;2.20;2.10;;;24.60;47.90;;;;;;5024296;28;20525;-76
2023/06/24 11:04:51;;;;;;;2.03;1.93;;;24.60;47.90;;;;;;5023114;28;20487;-76
2023/06/24 11:07:19;;;;;;;2.43;2.33;;;24.60;47.90;;;;;;5023904;28;20427;-77
2023/06/24 11:09:50;;;;;;;2.50;2.40;;;24.60;48.00;;;;;;5023279;28;20435;-76
2023/06/24 11:12:15;;;;;;;2.20;2.10;;;24.60;48.00;;;;;;5025067;28;20440;-76
2023/06/24 11:14:41;;;;;;;2.30;2.20;;;24.60;48.00;;;;;;5025684;28;21060;-76
2023/06/24 11:17:06;;;;;;;2.40;2.30;;;24.60;47.90;;;;;;5021892;28;20663;-76
2023/06/24 11:19:32;;;;;;;2.17;2.07;;;24.60;48.00;;;;;;5023672;28;20209;-76
2023/06/24 11:22:01;;;;;;;2.00;1.80;;;24.60;48.00;;;;;;5017690;28;20198;-76
2023/06/24 11:24:28;;;;;;;2.17;2.07;;;24.60;48.00;;;;;;5024123;28;20197;-76
2023/06/24 11:26:53;;;;;;;3.90;2.00;;;24.60;48.00;;;;;;5024847;28;21057;-76
2023/06/24 11:29:19;;;;;;;2.00;1.90;;;24.60;48.00;;;;;;5025136;28;20523;-76
2023/06/24 11:31:45;;;;;;;2.10;2.00;;;24.60;48.00;;;;;;5025217;28;20210;-77
2023/06/24 11:34:11;;;;;;;2.10;2.00;;;24.60;48.00;;;;;;5030972;28;20661;-76
2023/06/24 11:36:36;;;;;;;2.30;2.20;;;24.60;48.00;;;;;;5026922;28;20439;-76
2023/06/24 11:39:03;;;;;;;2.30;2.20;;;24.60;48.00;;;;;;5029961;28;20190;-76
2023/06/24 11:41:28;;;;;;;2.20;2.10;;;24.60;48.00;;;;;;5027602;28;21029;-76
2023/06/24 11:43:57;;;;;;;1.97;1.87;;;24.60;48.00;;;;;;5029785;28;20439;-76
2023/06/24 11:46:35;;;;;;;1.90;1.80;;;24.60;48.10;;;;;;5022572;28;20198;-76
2023/06/24 11:49:08;;;;;;;2.40;2.30;;;24.60;48.00;;;;;;5020668;28;20435;-75
2023/06/24 11:51:37;;;;;;;1.90;1.80;;;24.60;48.10;;;;;;5023691;28;20440;-77
2023/06/24 11:54:05;;;;;;;1.70;1.60;;;24.60;48.10;;;;;;5021577;28;20459;-75
2023/06/24 11:56:43;;;;;;;1.83;1.73;;;24.60;48.10;;;;;;5024334;28;20518;-76
2023/06/24 11:59:19;;;;;;;1.70;1.60;;;24.70;48.10;;;;;;5028017;28;20888;-76
2023/06/24 12:01:55;;;;;;;1.80;1.70;;;24.70;48.20;;;;;;5024618;28;20860;-76
2023/06/24 12:04:21;;;;;;;1.80;1.70;;;24.70;48.20;;;;;;5028157;28;20516;-77
2023/06/24 12:06:47;;;;;;;2.10;2.00;;;24.60;48.10;;;;;;5026451;28;20812;-76
2023/06/24 12:09:13;;;;;;;2.10;2.00;;;24.70;48.10;;;;;;5028988;28;20435;-76
2023/06/24 12:11:38;;;;;;;2.00;1.90;;;24.70;48.10;;;;;;5026786;28;20536;-77
2023/06/24 12:14:05;;;;;;;1.90;1.80;;;24.70;48.00;;;;;;5025999;28;20237;-77
2023/06/24 12:16:31;;;;;;;1.90;1.80;;;24.70;48.00;;;;;;5025798;28;20191;-76
2023/06/24 12:18:56;;;;;;;1.90;1.80;;;24.70;47.90;;;;;;5044487;28;20465;-76
2023/06/24 12:21:22;;;;;;;1.80;1.70;;;24.70;47.90;;;;;;5023442;28;20230;-77
2023/06/24 12:23:48;;;;;;;1.90;1.80;;;24.70;47.90;;;;;;5027774;28;20178;-76
2023/06/24 12:26:13;;;;;;;1.80;1.70;;;24.70;47.90;;;;;;5026302;28;20234;-76
2023/06/24 12:28:39;;;;;;;1.70;1.60;;;24.70;47.90;;;;;;5028727;28;20228;-77
2023/06/24 12:31:05;;;;;;;1.60;1.50;;;24.70;47.80;;;;;;5026116;28;20222;-76
2023/06/24 12:33:30;;;;;;;1.77;1.67;;;24.70;47.80;;;;;;5028684;28;20218;-77
2023/06/24 12:35:56;;;;;;;1.80;1.70;;;24.70;47.70;;;;;;5024114;28;20178;-77
2023/06/24 12:38:22;;;;;;;1.63;1.53;;;24.70;47.70;;;;;;5028668;28;20269;-77
2023/06/24 12:40:48;;;;;;;1.80;1.70;;;24.70;47.60;;;;;;5023827;28;20187;-77
2023/06/24 12:43:14;;;;;;;1.80;1.70;;;24.70;47.60;;;;;;5025474;28;20210;-77
2023/06/24 12:45:43;;;;;;;1.60;1.50;;;24.70;47.50;;;;;;5025078;28;20182;-77
2023/06/24 12:48:09;;;;;;;1.60;1.50;;;24.70;47.60;;;;;;5025711;28;20507;-73